sensor_id;sensor_type;location;lat;lon;timestamp;P1;durP1;ratioP1;P2;durP2;ratioP2
52320;SDS011;38261;54.090;13.382;2022-07-29T00:00:35;13.60;;;6.13;;
52320;SDS011;38261;54.090;13.382;2022-07-29T00:01:57;11.33;;;5.40;;
52320;SDS011;38261;54.090;13.382;2022-07-29T00:03:19;10.57;;;5.33;;
52320;SDS011;38261;54.090;13.382;2022-07-29T00:04:41;11.90;;;5.57;;
52320;SDS011;38261;54.090;13.382;2022-07-29T00:06:03;20.03;;;5.70;;
52320;SDS011;38261;54.090;13.382;2022-07-29T00:07:26;10.93;;;4.90;;
52320;SDS011;38261;54.090;13.382;2022-07-29T00:08:48;8.07;;;4.50;;
52320;SDS011;38261;54.090;13.382;2022-07-29T00:10:10;7.43;;;4.00;;
52320;SDS011;38261;54.090;13.382;2022-07-29T00:11:32;7.00;;;4.00;;
52320;SDS011;38261;54.090;13.382;2022-07-29T00:12:54;8.20;;;4.60;;
52320;SDS011;38261;54.090;13.382;2022-07-29T00:14:17;7.17;;;4.03;;
52320;SDS011;38261;54.090;13.382;2022-07-29T00:15:39;4.97;;;3.77;;
52320;SDS011;38261;54.090;13.382;2022-07-29T00:17:01;6.37;;;4.07;;
52320;SDS011;38261;54.090;13.382;2022-07-29T00:18:24;6.90;;;3.70;;
52320;SDS011;38261;54.090;13.382;2022-07-29T00:19:46;10.90;;;4.33;;
52320;SDS011;38261;54.090;13.382;2022-07-29T00:21:08;6.00;;;3.97;;
52320;SDS011;38261;54.090;13.382;2022-07-29T00:22:30;7.53;;;3.73;;
52320;SDS011;38261;54.090;13.382;2022-07-29T00:23:52;6.70;;;3.47;;
52320;SDS011;38261;54.090;13.382;2022-07-29T00:25:14;11.27;;;4.17;;
52320;SDS011;38261;54.090;13.382;2022-07-29T00:26:37;9.90;;;4.57;;
52320;SDS011;38261;54.090;13.382;2022-07-29T00:27:59;7.73;;;4.57;;
52320;SDS011;38261;54.090;13.382;2022-07-29T00:29:21;8.80;;;4.87;;
52320;SDS011;38261;54.090;13.382;2022-07-29T00:30:59;9.20;;;4.80;;
52320;SDS011;38261;54.090;13.382;2022-07-29T00:32:22;6.33;;;4.07;;
52320;SDS011;38261;54.090;13.382;2022-07-29T00:33:44;7.87;;;4.80;;
52320;SDS011;38261;54.090;13.382;2022-07-29T00:35:06;10.90;;;4.80;;
52320;SDS011;38261;54.090;13.382;2022-07-29T00:36:47;7.83;;;5.20;;
52320;SDS011;38261;54.090;13.382;2022-07-29T00:38:14;11.23;;;5.87;;
52320;SDS011;38261;54.090;13.382;2022-07-29T00:39:37;11.73;;;6.10;;
52320;SDS011;38261;54.090;13.382;2022-07-29T00:41:00;14.17;;;5.87;;
52320;SDS011;38261;54.090;13.382;2022-07-29T00:42:22;12.53;;;5.73;;
52320;SDS011;38261;54.090;13.382;2022-07-29T00:43:44;9.73;;;6.10;;
52320;SDS011;38261;54.090;13.382;2022-07-29T00:45:07;8.83;;;6.23;;
52320;SDS011;38261;54.090;13.382;2022-07-29T00:46:29;15.73;;;6.43;;
52320;SDS011;38261;54.090;13.382;2022-07-29T00:47:52;9.73;;;5.93;;
52320;SDS011;38261;54.090;13.382;2022-07-29T00:49:14;11.97;;;5.70;;
52320;SDS011;38261;54.090;13.382;2022-07-29T00:50:36;8.10;;;5.53;;
52320;SDS011;38261;54.090;13.382;2022-07-29T00:52:03;10.87;;;5.63;;
52320;SDS011;38261;54.090;13.382;2022-07-29T00:53:26;12.40;;;5.90;;
52320;SDS011;38261;54.090;13.382;2022-07-29T00:54:48;8.57;;;4.60;;
52320;SDS011;38261;54.090;13.382;2022-07-29T00:56:11;8.03;;;4.60;;
52320;SDS011;38261;54.090;13.382;2022-07-29T00:57:34;7.80;;;4.70;;
52320;SDS011;38261;54.090;13.382;2022-07-29T00:58:57;7.93;;;4.63;;
52320;SDS011;38261;54.090;13.382;2022-07-29T01:00:23;9.30;;;4.97;;
52320;SDS011;38261;54.090;13.382;2022-07-29T01:01:46;7.70;;;4.37;;
52320;SDS011;38261;54.090;13.382;2022-07-29T01:03:08;9.27;;;4.10;;
52320;SDS011;38261;54.090;13.382;2022-07-29T01:04:31;4.70;;;3.77;;
52320;SDS011;38261;54.090;13.382;2022-07-29T01:05:53;6.20;;;4.33;;
52320;SDS011;38261;54.090;13.382;2022-07-29T01:07:16;7.20;;;3.70;;
52320;SDS011;38261;54.090;13.382;2022-07-29T01:08:39;6.40;;;4.37;;
52320;SDS011;38261;54.090;13.382;2022-07-29T01:10:05;7.67;;;4.77;;
52320;SDS011;38261;54.090;13.382;2022-07-29T01:11:29;7.10;;;3.93;;
52320;SDS011;38261;54.090;13.382;2022-07-29T01:12:52;11.40;;;4.47;;
52320;SDS011;38261;54.090;13.382;2022-07-29T01:14:16;8.63;;;4.47;;
52320;SDS011;38261;54.090;13.382;2022-07-29T01:15:47;5.60;;;3.83;;
52320;SDS011;38261;54.090;13.382;2022-07-29T01:18:54;6.80;;;3.90;;
52320;SDS011;38261;54.090;13.382;2022-07-29T01:21:56;6.90;;;3.47;;
52320;SDS011;38261;54.090;13.382;2022-07-29T01:26:45;5.70;;;3.30;;
52320;SDS011;38261;54.090;13.382;2022-07-29T01:30:06;5.97;;;3.00;;
52320;SDS011;38261;54.090;13.382;2022-07-29T01:31:35;5.97;;;3.33;;
52320;SDS011;38261;54.090;13.382;2022-07-29T01:33:20;10.13;;;3.23;;
52320;SDS011;38261;54.090;13.382;2022-07-29T01:35:04;7.27;;;3.00;;
52320;SDS011;38261;54.090;13.382;2022-07-29T01:38:16;6.00;;;2.83;;
52320;SDS011;38261;54.090;13.382;2022-07-29T01:39:41;5.50;;;2.90;;
52320;SDS011;38261;54.090;13.382;2022-07-29T01:41:11;4.37;;;2.83;;
52320;SDS011;38261;54.090;13.382;2022-07-29T01:42:38;4.10;;;2.60;;
52320;SDS011;38261;54.090;13.382;2022-07-29T01:44:10;4.30;;;2.50;;
52320;SDS011;38261;54.090;13.382;2022-07-29T01:45:37;7.90;;;2.70;;
52320;SDS011;38261;54.090;13.382;2022-07-29T01:47:05;5.97;;;2.33;;
52320;SDS011;38261;54.090;13.382;2022-07-29T01:48:48;6.10;;;3.27;;
52320;SDS011;38261;54.090;13.382;2022-07-29T01:50:18;3.43;;;2.40;;
52320;SDS011;38261;54.090;13.382;2022-07-29T01:51:49;5.00;;;2.60;;
52320;SDS011;38261;54.090;13.382;2022-07-29T01:53:15;6.43;;;2.80;;
52320;SDS011;38261;54.090;13.382;2022-07-29T01:54:49;3.33;;;2.50;;
52320;SDS011;38261;54.090;13.382;2022-07-29T01:56:16;7.67;;;3.40;;
52320;SDS011;38261;54.090;13.382;2022-07-29T01:57:42;5.37;;;3.10;;
52320;SDS011;38261;54.090;13.382;2022-07-29T01:59:08;7.10;;;2.70;;
52320;SDS011;38261;54.090;13.382;2022-07-29T02:00:32;5.13;;;3.23;;
52320;SDS011;38261;54.090;13.382;2022-07-29T02:01:57;7.73;;;3.10;;
52320;SDS011;38261;54.090;13.382;2022-07-29T02:03:20;6.80;;;3.23;;
52320;SDS011;38261;54.090;13.382;2022-07-29T02:04:44;3.90;;;2.70;;
52320;SDS011;38261;54.090;13.382;2022-07-29T02:06:11;9.60;;;3.77;;
52320;SDS011;38261;54.090;13.382;2022-07-29T02:07:35;14.07;;;3.33;;
52320;SDS011;38261;54.090;13.382;2022-07-29T02:08:59;4.40;;;3.37;;
52320;SDS011;38261;54.090;13.382;2022-07-29T02:10:25;4.20;;;3.03;;
52320;SDS011;38261;54.090;13.382;2022-07-29T02:11:51;4.50;;;3.47;;
52320;SDS011;38261;54.090;13.382;2022-07-29T02:13:15;8.23;;;3.47;;
52320;SDS011;38261;54.090;13.382;2022-07-29T02:14:41;6.27;;;3.13;;
52320;SDS011;38261;54.090;13.382;2022-07-29T02:16:06;5.90;;;3.40;;
52320;SDS011;38261;54.090;13.382;2022-07-29T02:17:32;4.53;;;3.33;;
52320;SDS011;38261;54.090;13.382;2022-07-29T02:19:01;4.10;;;3.27;;
52320;SDS011;38261;54.090;13.382;2022-07-29T02:20:25;5.00;;;3.57;;
52320;SDS011;38261;54.090;13.382;2022-07-29T02:21:49;4.57;;;2.83;;
52320;SDS011;38261;54.090;13.382;2022-07-29T02:23:14;7.60;;;2.40;;
52320;SDS011;38261;54.090;13.382;2022-07-29T02:24:44;3.87;;;3.00;;
52320;SDS011;38261;54.090;13.382;2022-07-29T02:26:09;5.47;;;2.90;;
52320;SDS011;38261;54.090;13.382;2022-07-29T02:27:32;13.67;;;3.50;;
52320;SDS011;38261;54.090;13.382;2022-07-29T02:28:56;5.53;;;3.10;;
52320;SDS011;38261;54.090;13.382;2022-07-29T02:30:20;7.73;;;3.73;;
52320;SDS011;38261;54.090;13.382;2022-07-29T02:31:44;5.73;;;3.10;;
52320;SDS011;38261;54.090;13.382;2022-07-29T02:33:09;4.93;;;3.30;;
52320;SDS011;38261;54.090;13.382;2022-07-29T02:34:34;11.37;;;2.90;;
52320;SDS011;38261;54.090;13.382;2022-07-29T02:35:59;4.50;;;2.90;;
52320;SDS011;38261;54.090;13.382;2022-07-29T02:37:24;4.97;;;3.50;;
52320;SDS011;38261;54.090;13.382;2022-07-29T02:38:48;3.83;;;2.57;;
52320;SDS011;38261;54.090;13.382;2022-07-29T02:40:11;4.80;;;3.00;;
52320;SDS011;38261;54.090;13.382;2022-07-29T02:41:46;4.30;;;3.07;;
52320;SDS011;38261;54.090;13.382;2022-07-29T02:43:11;3.77;;;2.40;;
52320;SDS011;38261;54.090;13.382;2022-07-29T02:44:33;3.50;;;2.80;;
52320;SDS011;38261;54.090;13.382;2022-07-29T02:45:56;3.40;;;2.60;;
52320;SDS011;38261;54.090;13.382;2022-07-29T02:50:37;3.50;;;2.30;;
52320;SDS011;38261;54.090;13.382;2022-07-29T02:52:04;7.03;;;2.73;;
52320;SDS011;38261;54.090;13.382;2022-07-29T02:53:39;6.17;;;2.60;;
52320;SDS011;38261;54.090;13.382;2022-07-29T02:55:11;4.87;;;2.70;;
52320;SDS011;38261;54.090;13.382;2022-07-29T02:56:40;6.10;;;2.97;;
52320;SDS011;38261;54.090;13.382;2022-07-29T02:58:07;5.03;;;2.73;;
52320;SDS011;38261;54.090;13.382;2022-07-29T02:59:36;5.53;;;2.67;;
52320;SDS011;38261;54.090;13.382;2022-07-29T03:01:03;5.07;;;2.60;;
52320;SDS011;38261;54.090;13.382;2022-07-29T03:02:43;4.90;;;2.70;;
52320;SDS011;38261;54.090;13.382;2022-07-29T03:04:07;4.93;;;3.03;;
52320;SDS011;38261;54.090;13.382;2022-07-29T03:05:31;5.17;;;3.10;;
52320;SDS011;38261;54.090;13.382;2022-07-29T03:06:54;4.90;;;3.10;;
52320;SDS011;38261;54.090;13.382;2022-07-29T03:08:19;4.93;;;2.60;;
52320;SDS011;38261;54.090;13.382;2022-07-29T03:09:42;2.47;;;2.20;;
52320;SDS011;38261;54.090;13.382;2022-07-29T03:11:05;7.97;;;2.30;;
52320;SDS011;38261;54.090;13.382;2022-07-29T03:12:28;3.00;;;2.30;;
52320;SDS011;38261;54.090;13.382;2022-07-29T03:13:52;6.43;;;2.03;;
52320;SDS011;38261;54.090;13.382;2022-07-29T03:15:15;2.43;;;2.23;;
52320;SDS011;38261;54.090;13.382;2022-07-29T03:16:37;3.93;;;1.90;;
52320;SDS011;38261;54.090;13.382;2022-07-29T03:18:02;4.40;;;2.23;;
52320;SDS011;38261;54.090;13.382;2022-07-29T03:19:24;4.17;;;3.20;;
52320;SDS011;38261;54.090;13.382;2022-07-29T03:20:47;6.53;;;3.10;;
52320;SDS011;38261;54.090;13.382;2022-07-29T03:22:09;8.33;;;2.60;;
52320;SDS011;38261;54.090;13.382;2022-07-29T03:23:32;3.47;;;2.23;;
52320;SDS011;38261;54.090;13.382;2022-07-29T03:24:57;5.13;;;2.30;;
52320;SDS011;38261;54.090;13.382;2022-07-29T03:26:19;4.80;;;2.20;;
52320;SDS011;38261;54.090;13.382;2022-07-29T03:27:41;3.20;;;2.43;;
52320;SDS011;38261;54.090;13.382;2022-07-29T03:29:04;3.93;;;2.63;;
52320;SDS011;38261;54.090;13.382;2022-07-29T03:30:27;3.73;;;2.40;;
52320;SDS011;38261;54.090;13.382;2022-07-29T03:31:52;3.97;;;2.27;;
52320;SDS011;38261;54.090;13.382;2022-07-29T03:33:15;4.20;;;2.13;;
52320;SDS011;38261;54.090;13.382;2022-07-29T03:34:37;3.63;;;2.50;;
52320;SDS011;38261;54.090;13.382;2022-07-29T03:35:59;5.37;;;2.17;;
52320;SDS011;38261;54.090;13.382;2022-07-29T03:37:23;4.50;;;2.53;;
52320;SDS011;38261;54.090;13.382;2022-07-29T03:38:45;3.73;;;2.10;;
52320;SDS011;38261;54.090;13.382;2022-07-29T03:40:09;7.03;;;2.33;;
52320;SDS011;38261;54.090;13.382;2022-07-29T03:41:36;4.40;;;2.90;;
52320;SDS011;38261;54.090;13.382;2022-07-29T03:43:03;3.10;;;2.30;;
52320;SDS011;38261;54.090;13.382;2022-07-29T03:44:27;5.00;;;2.47;;
52320;SDS011;38261;54.090;13.382;2022-07-29T03:45:51;3.23;;;2.37;;
52320;SDS011;38261;54.090;13.382;2022-07-29T03:47:16;5.03;;;2.70;;
52320;SDS011;38261;54.090;13.382;2022-07-29T03:48:42;6.70;;;2.40;;
52320;SDS011;38261;54.090;13.382;2022-07-29T03:50:08;3.83;;;2.40;;
52320;SDS011;38261;54.090;13.382;2022-07-29T03:51:33;3.20;;;2.60;;
52320;SDS011;38261;54.090;13.382;2022-07-29T03:52:56;4.50;;;2.47;;
52320;SDS011;38261;54.090;13.382;2022-07-29T03:54:19;8.87;;;2.60;;
52320;SDS011;38261;54.090;13.382;2022-07-29T03:55:46;4.47;;;2.30;;
52320;SDS011;38261;54.090;13.382;2022-07-29T03:57:11;7.77;;;2.70;;
52320;SDS011;38261;54.090;13.382;2022-07-29T03:58:36;4.37;;;2.20;;
52320;SDS011;38261;54.090;13.382;2022-07-29T04:00:00;7.63;;;2.27;;
52320;SDS011;38261;54.090;13.382;2022-07-29T04:01:25;2.70;;;2.27;;
52320;SDS011;38261;54.090;13.382;2022-07-29T04:02:50;3.57;;;2.27;;
52320;SDS011;38261;54.090;13.382;2022-07-29T04:04:12;5.33;;;2.37;;
52320;SDS011;38261;54.090;13.382;2022-07-29T04:05:35;3.50;;;2.10;;
52320;SDS011;38261;54.090;13.382;2022-07-29T04:06:57;4.10;;;2.37;;
52320;SDS011;38261;54.090;13.382;2022-07-29T04:08:19;3.67;;;2.40;;
52320;SDS011;38261;54.090;13.382;2022-07-29T04:09:41;4.10;;;2.30;;
52320;SDS011;38261;54.090;13.382;2022-07-29T04:11:04;3.20;;;2.10;;
52320;SDS011;38261;54.090;13.382;2022-07-29T04:12:26;3.73;;;1.90;;
52320;SDS011;38261;54.090;13.382;2022-07-29T04:13:48;3.57;;;1.90;;
52320;SDS011;38261;54.090;13.382;2022-07-29T04:15:10;4.77;;;2.30;;
52320;SDS011;38261;54.090;13.382;2022-07-29T04:16:33;4.20;;;2.60;;
52320;SDS011;38261;54.090;13.382;2022-07-29T04:17:55;14.27;;;2.63;;
52320;SDS011;38261;54.090;13.382;2022-07-29T04:19:17;6.67;;;2.97;;
52320;SDS011;38261;54.090;13.382;2022-07-29T04:20:39;4.00;;;2.00;;
52320;SDS011;38261;54.090;13.382;2022-07-29T04:22:02;6.30;;;2.40;;
52320;SDS011;38261;54.090;13.382;2022-07-29T04:23:24;3.30;;;2.20;;
52320;SDS011;38261;54.090;13.382;2022-07-29T04:24:47;7.20;;;2.03;;
52320;SDS011;38261;54.090;13.382;2022-07-29T04:26:09;2.47;;;1.80;;
52320;SDS011;38261;54.090;13.382;2022-07-29T04:27:32;6.43;;;2.27;;
52320;SDS011;38261;54.090;13.382;2022-07-29T04:28:54;5.07;;;2.37;;
52320;SDS011;38261;54.090;13.382;2022-07-29T04:30:16;5.13;;;2.10;;
52320;SDS011;38261;54.090;13.382;2022-07-29T04:31:38;4.20;;;2.10;;
52320;SDS011;38261;54.090;13.382;2022-07-29T04:33:01;3.03;;;1.90;;
52320;SDS011;38261;54.090;13.382;2022-07-29T04:34:25;2.43;;;2.20;;
52320;SDS011;38261;54.090;13.382;2022-07-29T04:35:48;5.83;;;1.97;;
52320;SDS011;38261;54.090;13.382;2022-07-29T04:37:15;4.90;;;2.17;;
52320;SDS011;38261;54.090;13.382;2022-07-29T04:38:37;3.77;;;2.33;;
52320;SDS011;38261;54.090;13.382;2022-07-29T04:40:00;3.60;;;3.00;;
52320;SDS011;38261;54.090;13.382;2022-07-29T04:41:22;4.30;;;2.57;;
52320;SDS011;38261;54.090;13.382;2022-07-29T04:42:53;8.77;;;2.93;;
52320;SDS011;38261;54.090;13.382;2022-07-29T04:44:21;7.47;;;3.50;;
52320;SDS011;38261;54.090;13.382;2022-07-29T04:45:49;6.77;;;3.30;;
52320;SDS011;38261;54.090;13.382;2022-07-29T04:47:12;11.90;;;3.70;;
52320;SDS011;38261;54.090;13.382;2022-07-29T04:48:34;6.13;;;3.07;;
52320;SDS011;38261;54.090;13.382;2022-07-29T04:49:56;5.83;;;3.00;;
52320;SDS011;38261;54.090;13.382;2022-07-29T04:51:18;8.37;;;3.47;;
52320;SDS011;38261;54.090;13.382;2022-07-29T04:52:40;11.30;;;3.67;;
52320;SDS011;38261;54.090;13.382;2022-07-29T04:54:03;6.87;;;2.60;;
52320;SDS011;38261;54.090;13.382;2022-07-29T04:55:25;7.00;;;2.70;;
52320;SDS011;38261;54.090;13.382;2022-07-29T04:56:47;7.87;;;2.93;;
52320;SDS011;38261;54.090;13.382;2022-07-29T04:58:10;5.37;;;2.70;;
52320;SDS011;38261;54.090;13.382;2022-07-29T04:59:32;11.37;;;2.80;;
52320;SDS011;38261;54.090;13.382;2022-07-29T05:00:54;8.43;;;2.90;;
52320;SDS011;38261;54.090;13.382;2022-07-29T05:02:16;7.90;;;2.97;;
52320;SDS011;38261;54.090;13.382;2022-07-29T05:03:38;3.80;;;2.60;;
52320;SDS011;38261;54.090;13.382;2022-07-29T05:05:01;5.43;;;3.10;;
52320;SDS011;38261;54.090;13.382;2022-07-29T05:06:23;8.43;;;3.97;;
52320;SDS011;38261;54.090;13.382;2022-07-29T05:07:45;11.47;;;6.90;;
52320;SDS011;38261;54.090;13.382;2022-07-29T05:09:07;10.13;;;5.80;;
52320;SDS011;38261;54.090;13.382;2022-07-29T05:10:29;12.67;;;6.53;;
52320;SDS011;38261;54.090;13.382;2022-07-29T05:11:51;15.50;;;5.67;;
52320;SDS011;38261;54.090;13.382;2022-07-29T05:13:13;10.30;;;4.73;;
52320;SDS011;38261;54.090;13.382;2022-07-29T05:14:35;9.23;;;4.33;;
52320;SDS011;38261;54.090;13.382;2022-07-29T05:15:57;9.60;;;3.80;;
52320;SDS011;38261;54.090;13.382;2022-07-29T05:17:20;6.20;;;3.50;;
52320;SDS011;38261;54.090;13.382;2022-07-29T05:18:42;9.60;;;3.60;;
52320;SDS011;38261;54.090;13.382;2022-07-29T05:20:04;7.83;;;4.03;;
52320;SDS011;38261;54.090;13.382;2022-07-29T05:21:27;9.53;;;2.80;;
52320;SDS011;38261;54.090;13.382;2022-07-29T05:22:49;8.30;;;2.90;;
52320;SDS011;38261;54.090;13.382;2022-07-29T05:24:12;8.23;;;3.00;;
52320;SDS011;38261;54.090;13.382;2022-07-29T05:25:36;4.57;;;2.60;;
52320;SDS011;38261;54.090;13.382;2022-07-29T05:27:05;4.00;;;2.53;;
52320;SDS011;38261;54.090;13.382;2022-07-29T05:28:27;6.37;;;2.10;;
52320;SDS011;38261;54.090;13.382;2022-07-29T05:29:49;4.43;;;1.80;;
52320;SDS011;38261;54.090;13.382;2022-07-29T05:31:11;7.17;;;2.27;;
52320;SDS011;38261;54.090;13.382;2022-07-29T05:32:36;4.57;;;1.80;;
52320;SDS011;38261;54.090;13.382;2022-07-29T05:33:58;3.03;;;1.80;;
52320;SDS011;38261;54.090;13.382;2022-07-29T05:35:20;7.23;;;2.00;;
52320;SDS011;38261;54.090;13.382;2022-07-29T05:36:42;11.10;;;2.03;;
52320;SDS011;38261;54.090;13.382;2022-07-29T05:38:04;3.97;;;1.47;;
52320;SDS011;38261;54.090;13.382;2022-07-29T05:39:27;3.47;;;1.53;;
52320;SDS011;38261;54.090;13.382;2022-07-29T05:41:09;2.93;;;1.40;;
52320;SDS011;38261;54.090;13.382;2022-07-29T05:42:31;5.00;;;1.60;;
52320;SDS011;38261;54.090;13.382;2022-07-29T05:43:54;4.43;;;1.83;;
52320;SDS011;38261;54.090;13.382;2022-07-29T05:45:16;2.83;;;1.43;;
52320;SDS011;38261;54.090;13.382;2022-07-29T05:46:38;3.40;;;1.67;;
52320;SDS011;38261;54.090;13.382;2022-07-29T05:48:01;5.40;;;1.83;;
52320;SDS011;38261;54.090;13.382;2022-07-29T05:49:23;4.40;;;1.90;;
52320;SDS011;38261;54.090;13.382;2022-07-29T05:50:48;2.90;;;1.60;;
52320;SDS011;38261;54.090;13.382;2022-07-29T05:52:10;5.63;;;1.70;;
52320;SDS011;38261;54.090;13.382;2022-07-29T05:53:32;3.43;;;1.63;;
52320;SDS011;38261;54.090;13.382;2022-07-29T05:54:54;4.30;;;1.60;;
52320;SDS011;38261;54.090;13.382;2022-07-29T05:56:17;6.70;;;1.97;;
52320;SDS011;38261;54.090;13.382;2022-07-29T05:57:39;5.10;;;2.03;;
52320;SDS011;38261;54.090;13.382;2022-07-29T05:59:02;5.10;;;1.70;;
52320;SDS011;38261;54.090;13.382;2022-07-29T06:00:38;6.23;;;2.00;;
52320;SDS011;38261;54.090;13.382;2022-07-29T06:02:00;6.50;;;2.00;;
52320;SDS011;38261;54.090;13.382;2022-07-29T06:03:23;2.67;;;1.90;;
52320;SDS011;38261;54.090;13.382;2022-07-29T06:04:49;11.27;;;1.90;;
52320;SDS011;38261;54.090;13.382;2022-07-29T06:06:11;4.00;;;1.53;;
52320;SDS011;38261;54.090;13.382;2022-07-29T06:07:33;3.60;;;1.50;;
52320;SDS011;38261;54.090;13.382;2022-07-29T06:08:56;5.87;;;1.97;;
52320;SDS011;38261;54.090;13.382;2022-07-29T06:10:18;7.00;;;1.57;;
52320;SDS011;38261;54.090;13.382;2022-07-29T06:11:44;6.53;;;1.80;;
52320;SDS011;38261;54.090;13.382;2022-07-29T06:13:06;3.23;;;1.60;;
52320;SDS011;38261;54.090;13.382;2022-07-29T06:14:28;4.23;;;1.60;;
52320;SDS011;38261;54.090;13.382;2022-07-29T06:15:50;4.50;;;1.73;;
52320;SDS011;38261;54.090;13.382;2022-07-29T06:17:15;3.73;;;1.60;;
52320;SDS011;38261;54.090;13.382;2022-07-29T06:18:38;4.73;;;1.57;;
52320;SDS011;38261;54.090;13.382;2022-07-29T06:20:00;6.03;;;1.80;;
52320;SDS011;38261;54.090;13.382;2022-07-29T06:21:22;7.90;;;1.40;;
52320;SDS011;38261;54.090;13.382;2022-07-29T06:22:45;2.20;;;1.30;;
52320;SDS011;38261;54.090;13.382;2022-07-29T06:24:07;10.10;;;2.40;;
52320;SDS011;38261;54.090;13.382;2022-07-29T06:25:29;4.30;;;1.77;;
52320;SDS011;38261;54.090;13.382;2022-07-29T06:26:52;3.73;;;1.83;;
52320;SDS011;38261;54.090;13.382;2022-07-29T06:28:14;4.57;;;1.70;;
52320;SDS011;38261;54.090;13.382;2022-07-29T06:29:36;8.70;;;1.93;;
52320;SDS011;38261;54.090;13.382;2022-07-29T06:30:59;7.10;;;1.63;;
52320;SDS011;38261;54.090;13.382;2022-07-29T06:32:21;5.13;;;2.10;;
52320;SDS011;38261;54.090;13.382;2022-07-29T06:33:48;9.50;;;3.63;;
52320;SDS011;38261;54.090;13.382;2022-07-29T06:35:10;4.13;;;1.80;;
52320;SDS011;38261;54.090;13.382;2022-07-29T06:36:52;3.50;;;1.73;;
52320;SDS011;38261;54.090;13.382;2022-07-29T06:38:14;2.93;;;1.50;;
52320;SDS011;38261;54.090;13.382;2022-07-29T06:39:54;5.60;;;2.40;;
52320;SDS011;38261;54.090;13.382;2022-07-29T06:41:35;3.97;;;2.10;;
52320;SDS011;38261;54.090;13.382;2022-07-29T06:42:57;8.03;;;2.43;;
52320;SDS011;38261;54.090;13.382;2022-07-29T06:44:19;3.77;;;1.90;;
52320;SDS011;38261;54.090;13.382;2022-07-29T06:45:41;3.03;;;1.67;;
52320;SDS011;38261;54.090;13.382;2022-07-29T06:47:04;3.80;;;1.70;;
52320;SDS011;38261;54.090;13.382;2022-07-29T06:48:26;6.03;;;2.20;;
52320;SDS011;38261;54.090;13.382;2022-07-29T06:49:48;5.90;;;1.80;;
52320;SDS011;38261;54.090;13.382;2022-07-29T06:51:10;8.23;;;1.90;;
52320;SDS011;38261;54.090;13.382;2022-07-29T06:52:33;3.60;;;1.50;;
52320;SDS011;38261;54.090;13.382;2022-07-29T06:53:55;10.13;;;2.00;;
52320;SDS011;38261;54.090;13.382;2022-07-29T06:55:23;2.77;;;1.80;;
52320;SDS011;38261;54.090;13.382;2022-07-29T06:56:46;3.90;;;1.93;;
52320;SDS011;38261;54.090;13.382;2022-07-29T06:58:08;7.17;;;2.40;;
52320;SDS011;38261;54.090;13.382;2022-07-29T06:59:30;8.13;;;2.27;;
52320;SDS011;38261;54.090;13.382;2022-07-29T07:01:00;3.30;;;2.00;;
52320;SDS011;38261;54.090;13.382;2022-07-29T07:02:24;4.20;;;1.50;;
52320;SDS011;38261;54.090;13.382;2022-07-29T07:03:46;4.93;;;2.10;;
52320;SDS011;38261;54.090;13.382;2022-07-29T07:05:08;7.50;;;2.00;;
52320;SDS011;38261;54.090;13.382;2022-07-29T07:06:30;5.73;;;2.07;;
52320;SDS011;38261;54.090;13.382;2022-07-29T07:07:52;8.03;;;1.90;;
52320;SDS011;38261;54.090;13.382;2022-07-29T07:09:14;6.30;;;2.23;;
52320;SDS011;38261;54.090;13.382;2022-07-29T07:10:36;4.00;;;1.60;;
52320;SDS011;38261;54.090;13.382;2022-07-29T07:11:59;3.10;;;1.50;;
52320;SDS011;38261;54.090;13.382;2022-07-29T07:13:21;6.30;;;2.20;;
52320;SDS011;38261;54.090;13.382;2022-07-29T07:14:43;4.53;;;1.97;;
52320;SDS011;38261;54.090;13.382;2022-07-29T07:16:05;7.57;;;1.80;;
52320;SDS011;38261;54.090;13.382;2022-07-29T07:17:27;4.60;;;1.80;;
52320;SDS011;38261;54.090;13.382;2022-07-29T07:18:50;2.60;;;1.73;;
52320;SDS011;38261;54.090;13.382;2022-07-29T07:20:12;4.03;;;1.63;;
52320;SDS011;38261;54.090;13.382;2022-07-29T07:21:34;8.63;;;2.00;;
52320;SDS011;38261;54.090;13.382;2022-07-29T07:22:56;9.50;;;2.50;;
52320;SDS011;38261;54.090;13.382;2022-07-29T07:24:18;7.00;;;1.70;;
52320;SDS011;38261;54.090;13.382;2022-07-29T07:25:41;7.43;;;2.00;;
52320;SDS011;38261;54.090;13.382;2022-07-29T07:27:03;3.67;;;1.80;;
52320;SDS011;38261;54.090;13.382;2022-07-29T07:28:25;8.67;;;1.90;;
52320;SDS011;38261;54.090;13.382;2022-07-29T07:29:47;5.73;;;1.93;;
52320;SDS011;38261;54.090;13.382;2022-07-29T07:31:10;3.73;;;2.00;;
52320;SDS011;38261;54.090;13.382;2022-07-29T07:32:33;3.70;;;2.03;;
52320;SDS011;38261;54.090;13.382;2022-07-29T07:33:56;8.57;;;1.90;;
52320;SDS011;38261;54.090;13.382;2022-07-29T07:35:18;3.50;;;1.40;;
52320;SDS011;38261;54.090;13.382;2022-07-29T07:36:40;3.57;;;2.00;;
52320;SDS011;38261;54.090;13.382;2022-07-29T07:38:02;5.03;;;2.13;;
52320;SDS011;38261;54.090;13.382;2022-07-29T07:39:24;9.50;;;2.07;;
52320;SDS011;38261;54.090;13.382;2022-07-29T07:40:47;4.20;;;2.03;;
52320;SDS011;38261;54.090;13.382;2022-07-29T07:42:09;6.23;;;1.60;;
52320;SDS011;38261;54.090;13.382;2022-07-29T07:43:34;11.40;;;2.30;;
52320;SDS011;38261;54.090;13.382;2022-07-29T07:44:56;5.33;;;2.20;;
52320;SDS011;38261;54.090;13.382;2022-07-29T07:46:34;3.17;;;2.00;;
52320;SDS011;38261;54.090;13.382;2022-07-29T07:47:58;3.83;;;1.70;;
52320;SDS011;38261;54.090;13.382;2022-07-29T07:49:21;3.30;;;1.50;;
52320;SDS011;38261;54.090;13.382;2022-07-29T07:50:43;6.60;;;2.20;;
52320;SDS011;38261;54.090;13.382;2022-07-29T07:52:05;2.80;;;1.80;;
52320;SDS011;38261;54.090;13.382;2022-07-29T07:53:27;4.93;;;2.00;;
52320;SDS011;38261;54.090;13.382;2022-07-29T07:54:51;2.53;;;1.50;;
52320;SDS011;38261;54.090;13.382;2022-07-29T07:56:13;7.20;;;1.93;;
52320;SDS011;38261;54.090;13.382;2022-07-29T07:57:35;3.80;;;1.77;;
52320;SDS011;38261;54.090;13.382;2022-07-29T07:58:57;7.77;;;1.73;;
52320;SDS011;38261;54.090;13.382;2022-07-29T08:00:19;3.20;;;1.37;;
52320;SDS011;38261;54.090;13.382;2022-07-29T08:01:44;4.90;;;1.70;;
52320;SDS011;38261;54.090;13.382;2022-07-29T08:03:10;2.50;;;1.50;;
52320;SDS011;38261;54.090;13.382;2022-07-29T08:04:37;3.23;;;1.40;;
52320;SDS011;38261;54.090;13.382;2022-07-29T08:06:02;22.37;;;2.13;;
52320;SDS011;38261;54.090;13.382;2022-07-29T08:07:25;4.10;;;1.73;;
52320;SDS011;38261;54.090;13.382;2022-07-29T08:08:47;3.83;;;1.47;;
52320;SDS011;38261;54.090;13.382;2022-07-29T08:10:09;5.97;;;1.60;;
52320;SDS011;38261;54.090;13.382;2022-07-29T08:11:31;7.50;;;1.60;;
52320;SDS011;38261;54.090;13.382;2022-07-29T08:12:58;4.80;;;1.47;;
52320;SDS011;38261;54.090;13.382;2022-07-29T08:14:21;3.50;;;1.53;;
52320;SDS011;38261;54.090;13.382;2022-07-29T08:15:43;4.43;;;1.43;;
52320;SDS011;38261;54.090;13.382;2022-07-29T08:17:06;9.27;;;1.70;;
52320;SDS011;38261;54.090;13.382;2022-07-29T08:18:29;7.13;;;1.53;;
52320;SDS011;38261;54.090;13.382;2022-07-29T08:19:52;2.40;;;1.57;;
52320;SDS011;38261;54.090;13.382;2022-07-29T08:21:14;5.60;;;1.93;;
52320;SDS011;38261;54.090;13.382;2022-07-29T08:22:37;3.77;;;1.50;;
52320;SDS011;38261;54.090;13.382;2022-07-29T08:23:59;6.33;;;2.03;;
52320;SDS011;38261;54.090;13.382;2022-07-29T08:25:40;7.03;;;1.60;;
52320;SDS011;38261;54.090;13.382;2022-07-29T08:27:03;5.60;;;1.40;;
52320;SDS011;38261;54.090;13.382;2022-07-29T08:28:42;7.83;;;1.73;;
52320;SDS011;38261;54.090;13.382;2022-07-29T08:30:10;8.60;;;1.90;;
52320;SDS011;38261;54.090;13.382;2022-07-29T08:31:32;4.20;;;1.53;;
52320;SDS011;38261;54.090;13.382;2022-07-29T08:32:55;9.50;;;1.77;;